Time;durP1;ratioP1;P1;durP2;ratioP2;P2;SDS_P1;SDS_P2;PMS_P1;PMS_P2;Temp;Humidity;BMP_temperature;BMP_pressure;BME280_temperature;BME280_humidity;BME280_pressure;Samples;Min_cycle;Max_cycle;Signal;HPM_P1;HPM_P2
2022/07/07 00:00:45;;;;;;;4.28;2.92;;;16.70;49.90;;;17.13;43.51;98252.91;5026807;28;20061;-40
2022/07/07 00:03:12;;;;;;;3.15;2.38;;;16.70;49.80;;;17.13;43.49;98247.53;5027039;28;20057;-40
2022/07/07 00:05:41;;;;;;;3.97;3.10;;;16.70;50.00;;;17.11;43.68;98247.69;5027465;28;20059;-41
2022/07/07 00:08:09;;;;;;;3.90;2.70;;;16.70;50.20;;;17.08;43.92;98244.59;5027398;28;20053;-40
2022/07/07 00:10:36;;;;;;;3.92;2.45;;;16.60;50.20;;;17.12;43.70;98244.00;5027494;28;20053;-40
2022/07/07 00:13:04;;;;;;;3.10;2.42;;;16.70;49.90;;;17.11;43.47;98236.13;5027309;28;20055;-40
2022/07/07 00:15:32;;;;;;;4.45;2.17;;;16.70;49.90;;;17.06;43.69;98238.53;5027971;28;20067;-40
2022/07/07 00:18:00;;;;;;;3.58;2.75;;;16.60;50.10;;;17.05;43.63;98237.69;5026937;28;20610;-40
2022/07/07 00:20:29;;;;;;;3.17;2.38;;;16.60;49.80;;;17.06;43.38;98238.53;5026524;28;20055;-41
2022/07/07 00:22:57;;;;;;;4.15;2.38;;;16.70;49.60;;;17.07;43.38;98232.13;5026706;28;20057;-41
2022/07/07 00:25:25;;;;;;;8.65;2.53;;;16.70;49.70;;;17.10;43.67;98227.22;5025391;28;20053;-40
2022/07/07 00:27:53;;;;;;;3.63;2.90;;;16.70;49.70;;;17.12;43.68;98227.88;5026681;28;20057;-40
2022/07/07 00:30:21;;;;;;;3.17;2.17;;;16.80;49.70;;;17.16;43.56;98230.16;5026464;28;20045;-40
2022/07/07 00:32:48;;;;;;;2.65;2.10;;;16.80;49.40;;;17.20;43.48;98228.78;5027105;28;20366;-40
2022/07/07 00:35:16;;;;;;;3.75;2.17;;;16.90;49.40;;;17.23;43.31;98223.81;5027891;28;20061;-40
2022/07/07 00:37:44;;;;;;;7.47;2.42;;;16.90;49.10;;;17.27;43.46;98226.97;5024882;28;20050;-39
2022/07/07 00:40:12;;;;;;;3.05;2.05;;;17.00;48.90;;;17.31;43.13;98230.94;5026516;28;20605;-40
2022/07/07 00:42:40;;;;;;;3.50;2.22;;;17.00;48.70;;;17.32;42.92;98225.38;5026002;28;20049;-40
2022/07/07 00:45:08;;;;;;;3.58;2.45;;;17.10;48.50;;;17.37;42.90;98222.16;5027459;28;20056;-40
2022/07/07 00:47:40;;;;;;;5.07;2.80;;;17.10;48.30;;;17.40;42.76;98213.69;5042510;28;20090;-40
2022/07/07 00:50:10;;;;;;;3.67;2.30;;;17.10;48.20;;;17.45;42.77;98205.88;5041834;28;20405;-40
2022/07/07 00:52:38;;;;;;;2.63;2.17;;;17.20;48.30;;;17.46;43.07;98212.91;5040976;28;20052;-41
2022/07/07 00:55:10;;;;;;;3.10;2.15;;;17.20;48.40;;;17.49;42.91;98219.78;5027203;28;20060;-41
2022/07/07 00:57:38;;;;;;;3.58;2.95;;;17.20;48.10;;;17.47;42.51;98208.38;5026389;28;20048;-41
2022/07/07 01:00:14;;;;;;;6.10;3.03;;;17.20;48.00;;;17.48;42.77;98205.47;5027186;28;20049;-40
2022/07/07 01:02:42;;;;;;;2.67;2.20;;;17.20;48.20;;;17.49;42.47;98206.31;5026105;28;20045;-41
2022/07/07 01:05:11;;;;;;;3.58;2.17;;;17.20;48.00;;;17.50;42.25;98211.50;5026748;28;20259;-41
2022/07/07 01:07:39;;;;;;;3.15;2.05;;;17.20;47.90;;;17.49;42.50;98200.94;5023457;28;20056;-41
2022/07/07 01:10:08;;;;;;;5.88;2.47;;;17.10;48.10;;;17.52;42.66;98197.84;5026729;28;20053;-41
2022/07/07 01:12:39;;;;;;;2.28;1.77;;;17.20;47.80;;;17.52;42.38;98201.41;5042002;28;20252;-40
2022/07/07 01:15:11;;;;;;;2.20;2.00;;;17.20;47.70;;;17.51;42.17;98198.88;5027654;28;20275;-41
2022/07/07 01:17:40;;;;;;;6.07;1.88;;;17.20;47.60;;;17.53;42.30;98196.84;5025886;28;20065;-41
2022/07/07 01:20:10;;;;;;;7.45;2.35;;;17.20;47.60;;;17.49;42.22;98201.75;5025401;28;20053;-40
2022/07/07 01:22:45;;;;;;;2.72;1.98;;;17.20;47.70;;;17.49;42.31;98193.69;5026553;28;20639;-41
2022/07/07 01:25:13;;;;;;;2.97;1.90;;;17.20;47.70;;;17.50;42.33;98198.03;5040010;28;20060;-40
2022/07/07 01:27:41;;;;;;;5.50;2.10;;;17.20;47.70;;;17.51;42.21;98199.72;5026194;28;20053;-41
2022/07/07 01:30:10;;;;;;;4.95;1.90;;;17.20;47.50;;;17.48;42.04;98192.00;5025931;28;20071;-41
2022/07/07 01:32:37;;;;;;;2.72;2.00;;;17.10;47.50;;;17.48;42.04;98188.50;5026299;28;20063;-40
2022/07/07 01:35:07;;;;;;;3.08;2.20;;;17.20;47.50;;;17.51;42.16;98186.25;5026583;28;20369;-41
2022/07/07 01:37:35;;;;;;;4.63;2.10;;;17.20;47.30;;;17.52;41.95;98182.56;5026134;28;20531;-41
2022/07/07 01:40:05;;;;;;;3.25;1.83;;;17.30;47.10;;;17.52;41.84;98185.25;5027671;28;20095;-41
2022/07/07 01:42:32;;;;;;;3.85;2.13;;;17.30;47.00;;;17.54;41.90;98170.75;5030653;28;20065;-41
2022/07/07 01:45:00;;;;;;;3.95;2.40;;;17.30;47.00;;;17.56;41.81;98172.22;5030372;28;20061;-41
2022/07/07 01:47:28;;;;;;;3.00;2.33;;;17.30;46.90;;;17.56;41.92;98169.50;5030677;28;20049;-40
2022/07/07 01:49:56;;;;;;;5.32;2.40;;;17.30;46.80;;;17.55;41.68;98162.47;5029974;28;20543;-41
2022/07/07 01:52:24;;;;;;;2.70;1.90;;;17.20;46.70;;;17.52;42.10;98166.41;5029665;28;20238;-41
2022/07/07 01:54:52;;;;;;;3.90;2.10;;;17.20;47.00;;;17.44;42.15;98161.13;5030031;28;20049;-41
2022/07/07 01:57:20;;;;;;;2.92;1.90;;;17.10;47.50;;;17.35;42.34;98162.31;5029818;28;20045;-41
2022/07/07 01:59:47;;;;;;;2.17;1.88;;;17.00;47.70;;;17.28;42.26;98162.22;5029290;28;20055;-41
2022/07/07 02:02:15;;;;;;;3.28;2.28;;;16.90;47.90;;;17.28;42.47;98156.84;5029868;28;20343;-40
2022/07/07 02:04:43;;;;;;;2.85;1.95;;;16.90;47.80;;;17.25;42.32;98154.53;5029747;28;20053;-40
2022/07/07 02:07:12;;;;;;;3.35;2.13;;;16.90;47.70;;;17.23;42.63;98164.63;5029985;28;20057;-41
2022/07/07 02:09:40;;;;;;;4.78;2.35;;;16.90;47.80;;;17.14;42.74;98163.13;5030536;28;20071;-41
2022/07/07 02:12:08;;;;;;;3.42;2.30;;;16.80;48.20;;;17.15;42.97;98166.63;5029768;28;20046;-41
2022/07/07 02:14:37;;;;;;;4.38;2.60;;;16.80;48.30;;;17.19;42.81;98165.22;5030187;28;20052;-41
2022/07/07 02:17:05;;;;;;;4.10;2.72;;;16.90;48.30;;;17.19;42.80;98171.44;5029924;28;20052;-41
2022/07/07 02:19:33;;;;;;;5.57;2.17;;;16.90;48.20;;;17.18;42.79;98166.25;5028752;28;20041;-40
2022/07/07 02:22:01;;;;;;;2.70;1.95;;;16.90;48.20;;;17.11;42.94;98166.16;5029165;28;20061;-40
2022/07/07 02:24:29;;;;;;;6.47;2.40;;;16.80;48.40;;;17.07;43.12;98167.59;5028230;28;20060;-41
2022/07/07 02:26:57;;;;;;;3.03;2.03;;;16.80;48.70;;;17.06;43.23;98164.06;5029538;28;20056;-40
2022/07/07 02:29:25;;;;;;;4.82;2.20;;;16.80;48.80;;;17.09;43.23;98169.03;5029061;28;20057;-41
2022/07/07 02:31:53;;;;;;;2.15;1.90;;;16.80;48.70;;;17.09;43.16;98174.44;5028403;28;20050;-40
2022/07/07 02:34:21;;;;;;;3.33;2.28;;;16.80;48.80;;;17.11;43.11;98174.25;5029027;28;20277;-40
2022/07/07 02:36:48;;;;;;;2.40;1.85;;;16.80;48.70;;;17.14;43.07;98168.50;5030361;28;20079;-40
2022/07/07 02:39:16;;;;;;;2.67;2.08;;;16.90;48.70;;;17.20;43.17;98169.59;5027764;28;20053;-41
2022/07/07 02:41:44;;;;;;;4.38;1.88;;;16.90;48.40;;;17.19;43.21;98166.03;5029164;28;20187;-41
2022/07/07 02:44:12;;;;;;;2.20;1.80;;;17.00;48.40;;;17.21;43.29;98158.63;5044342;28;20550;-41
2022/07/07 02:46:40;;;;;;;2.08;1.65;;;17.00;48.60;;;17.21;43.40;98155.94;5028157;28;20055;-41
2022/07/07 02:49:08;;;;;;;4.32;1.90;;;17.00;48.80;;;17.18;43.55;98155.50;5027893;28;20055;-40
2022/07/07 02:51:35;;;;;;;3.45;1.75;;;16.90;49.30;;;17.18;43.58;98145.56;5027827;28;20256;-40
2022/07/07 02:54:04;;;;;;;2.60;1.90;;;16.90;49.40;;;17.13;43.81;98145.28;5029888;28;20236;-41
2022/07/07 02:56:32;;;;;;;2.22;1.83;;;16.80;49.50;;;17.11;44.03;98148.16;5029378;28;20075;-41
2022/07/07 02:59:00;;;;;;;2.67;1.77;;;16.80;49.70;;;17.08;43.95;98145.88;5029007;28;20067;-41
2022/07/07 03:01:28;;;;;;;1.92;1.48;;;16.80;49.90;;;17.05;44.05;98146.25;5029743;28;20053;-41
2022/07/07 03:03:56;;;;;;;4.50;1.58;;;16.70;50.40;;;17.05;44.18;98151.63;5027820;28;20063;-41
2022/07/07 03:06:24;;;;;;;1.63;1.50;;;16.70;50.20;;;17.05;44.16;98140.03;5028141;28;20063;-41
2022/07/07 03:08:51;;;;;;;2.97;1.60;;;16.70;50.10;;;17.06;44.15;98139.00;5027974;28;20064;-41
2022/07/07 03:11:19;;;;;;;3.00;1.65;;;16.80;50.30;;;17.03;44.45;98137.53;5027939;28;20061;-41
2022/07/07 03:13:47;;;;;;;4.50;1.77;;;16.70;50.50;;;16.99;44.63;98132.75;5028816;28;20049;-41
2022/07/07 03:16:15;;;;;;;3.60;1.90;;;16.70;50.60;;;17.04;44.34;98127.59;5028800;28;20056;-40
2022/07/07 03:18:43;;;;;;;3.92;1.67;;;16.80;50.40;;;17.04;44.67;98130.28;5027427;28;20053;-41
2022/07/07 03:21:11;;;;;;;6.65;1.83;;;16.80;50.50;;;17.05;44.61;98127.41;5028258;28;20370;-41
2022/07/07 03:23:39;;;;;;;2.67;1.92;;;16.80;50.60;;;17.02;44.76;98129.66;5028564;28;20045;-40
2022/07/07 03:26:07;;;;;;;4.05;1.70;;;16.80;50.60;;;17.04;44.84;98123.06;5027478;28;20057;-40
2022/07/07 03:28:35;;;;;;;2.22;1.90;;;16.80;50.50;;;17.08;44.84;98126.22;5027718;28;20059;-41
2022/07/07 03:31:03;;;;;;;2.50;1.73;;;16.90;50.40;;;17.15;44.53;98129.78;5044199;28;20343;-41
2022/07/07 03:33:30;;;;;;;3.28;1.80;;;16.90;50.20;;;17.08;44.74;98120.84;5026372;28;20054;-40
2022/07/07 03:35:59;;;;;;;4.10;1.80;;;16.90;50.60;;;17.07;44.79;98114.59;5026857;28;20508;-40
2022/07/07 03:38:27;;;;;;;2.00;1.60;;;16.80;50.60;;;17.11;44.56;98118.56;5027656;28;20052;-40
2022/07/07 03:40:54;;;;;;;2.20;1.67;;;16.80;50.80;;;17.09;44.89;98122.50;5029577;28;20056;-39
2022/07/07 03:43:29;;;;;;;1.88;1.58;;;16.80;50.80;;;17.08;44.90;98118.16;5027173;28;20064;-40
2022/07/07 03:45:57;;;;;;;3.65;1.80;;;16.80;51.00;;;17.07;44.87;98117.28;5028356;28;20072;-40
2022/07/07 03:48:25;;;;;;;2.20;1.90;;;16.80;50.90;;;17.06;44.94;98114.78;5027886;28;20267;-40
2022/07/07 03:50:53;;;;;;;2.03;1.77;;;16.80;51.00;;;17.03;45.05;98112.50;5028183;28;20063;-41
2022/07/07 03:53:21;;;;;;;2.55;1.67;;;16.70;51.50;;;17.01;45.20;98109.19;5027745;28;20055;-40
2022/07/07 03:55:49;;;;;;;2.20;1.60;;;16.80;51.30;;;16.99;45.44;98111.22;5027983;28;20063;-41
2022/07/07 03:58:17;;;;;;;2.80;2.00;;;16.70;51.50;;;16.94;45.59;98117.16;5027504;28;20072;-41
2022/07/07 04:00:44;;;;;;;2.50;2.20;;;16.70;51.70;;;16.91;45.50;98113.00;5027999;28;20056;-39
2022/07/07 04:03:12;;;;;;;3.05;2.20;;;16.70;51.80;;;16.89;45.49;98116.91;5027421;28;20059;-39
2022/07/07 04:05:40;;;;;;;2.78;1.70;;;16.60;51.80;;;16.88;45.73;98115.22;5029083;28;20064;-39
2022/07/07 04:08:08;;;;;;;1.85;1.65;;;16.60;51.80;;;16.87;45.24;98117.09;5027025;28;20049;-39
2022/07/07 04:10:36;;;;;;;2.90;1.90;;;16.50;52.00;;;16.91;45.27;98112.19;5026891;28;20059;-39
2022/07/07 04:13:04;;;;;;;3.05;2.00;;;16.50;51.80;;;16.89;45.53;98127.66;5027032;28;20053;-40
2022/07/07 04:15:31;;;;;;;3.63;2.00;;;16.50;52.30;;;16.86;45.50;98126.16;5027014;28;20053;-40
2022/07/07 04:17:59;;;;;;;3.03;1.85;;;16.50;52.10;;;16.86;45.67;98128.84;5026822;28;20053;-39
2022/07/07 04:20:29;;;;;;;2.28;1.90;;;16.60;52.10;;;16.78;45.87;98120.06;5027175;28;20344;-40
2022/07/07 04:22:58;;;;;;;2.55;1.60;;;16.40;53.00;;;16.70;45.94;98110.25;5026704;28;20360;-39
2022/07/07 04:25:33;;;;;;;4.15;2.63;;;16.20;53.00;;;16.69;46.17;98116.63;5027958;28;20080;-39
2022/07/07 04:28:01;;;;;;;2.63;1.73;;;16.30;53.10;;;16.72;46.02;98116.25;5026766;28;20351;-39
2022/07/07 04:30:29;;;;;;;2.90;2.00;;;16.30;52.80;;;16.72;46.03;98102.81;5027029;28;20049;-39
2022/07/07 04:32:57;;;;;;;2.15;1.50;;;16.40;52.60;;;16.74;45.92;98100.78;5027873;28;20049;-39
2022/07/07 04:35:25;;;;;;;3.08;2.10;;;16.40;52.60;;;16.72;46.07;98095.59;5027760;28;20053;-40
2022/07/07 04:37:53;;;;;;;2.63;1.70;;;16.40;52.60;;;16.73;46.09;98099.94;5026830;28;20071;-40
2022/07/07 04:40:21;;;;;;;2.03;1.70;;;16.40;52.80;;;16.74;46.10;98111.53;5026998;28;20355;-40
2022/07/07 04:42:49;;;;;;;2.28;2.03;;;16.40;52.70;;;16.72;46.05;98106.34;5026977;28;20057;-40
2022/07/07 04:45:17;;;;;;;3.08;2.00;;;16.40;52.70;;;16.71;46.02;98110.06;5026264;28;20052;-40
2022/07/07 04:47:45;;;;;;;2.38;1.60;;;16.40;52.70;;;16.74;45.90;98103.47;5025377;28;20053;-40
2022/07/07 04:50:13;;;;;;;1.95;1.40;;;16.40;52.60;;;16.73;46.33;98096.44;5025117;28;20057;-40
2022/07/07 04:52:41;;;;;;;2.63;2.05;;;16.50;52.80;;;16.77;46.29;98097.72;5026674;28;20231;-40
2022/07/07 04:55:09;;;;;;;2.58;1.73;;;16.60;52.70;;;16.79;46.13;98093.00;5027147;28;20055;-40
2022/07/07 04:57:37;;;;;;;2.80;1.95;;;16.60;52.50;;;16.83;46.19;98093.47;5026766;28;20049;-40
2022/07/07 05:00:06;;;;;;;2.25;1.83;;;16.70;52.40;;;16.82;46.30;98092.63;5025357;28;20240;-40
2022/07/07 05:02:34;;;;;;;8.02;2.20;;;16.60;52.40;;;16.87;46.36;98100.13;5041528;28;20088;-40
2022/07/07 05:05:03;;;;;;;3.67;1.63;;;16.70;52.40;;;16.89;46.06;98090.84;5027494;28;20053;-40
2022/07/07 05:07:31;;;;;;;3.80;1.52;;;16.70;52.30;;;16.96;46.16;98092.75;5027063;28;20063;-40
2022/07/07 05:09:59;;;;;;;1.90;1.65;;;16.80;52.90;;;17.01;46.19;98093.88;5027285;28;20059;-40
2022/07/07 05:12:27;;;;;;;6.63;1.90;;;16.90;52.20;;;17.03;46.14;98094.50;5025571;28;20045;-41
2022/07/07 05:14:54;;;;;;;2.05;1.63;;;16.90;52.00;;;17.05;46.26;98088.94;5028185;28;20347;-41
2022/07/07 05:17:22;;;;;;;1.73;1.60;;;16.90;52.20;;;17.09;46.14;98090.22;5032949;28;20049;-40
2022/07/07 05:19:50;;;;;;;1.95;1.73;;;17.00;52.10;;;17.18;46.13;98093.63;5032376;28;20045;-40
2022/07/07 05:22:18;;;;;;;1.98;1.60;;;17.10;51.90;;;17.25;46.03;98098.03;5032709;28;20057;-40
2022/07/07 05:24:46;;;;;;;3.90;1.80;;;17.20;51.70;;;17.33;46.21;98097.03;5033575;28;20037;-39
2022/07/07 05:27:14;;;;;;;2.83;1.55;;;17.30;51.50;;;17.38;45.98;98097.31;5032166;28;20224;-39
2022/07/07 05:29:42;;;;;;;2.58;1.80;;;17.40;51.30;;;17.42;45.81;98087.81;5031563;28;20068;-40
2022/07/07 05:32:09;;;;;;;2.28;1.27;;;17.40;51.20;;;17.47;45.76;98090.78;5033308;28;20351;-40
2022/07/07 05:34:37;;;;;;;3.78;1.70;;;17.50;51.10;;;17.54;45.69;98090.81;5033933;28;20061;-40
2022/07/07 05:37:05;;;;;;;2.33;2.08;;;17.60;50.50;;;17.65;45.48;98089.47;5032695;28;20053;-40
2022/07/07 05:39:33;;;;;;;5.22;1.73;;;17.70;50.50;;;17.74;45.36;98093.69;5033592;28;20063;-40
2022/07/07 05:42:01;;;;;;;3.08;1.70;;;17.80;50.10;;;17.79;45.36;98083.13;5032704;28;20060;-40
2022/07/07 05:44:28;;;;;;;4.22;1.70;;;17.90;50.10;;;17.95;45.31;98083.88;5032312;28;20059;-40
2022/07/07 05:46:56;;;;;;;2.28;1.80;;;18.10;50.10;;;18.06;45.31;98083.34;5033472;28;20071;-40
2022/07/07 05:49:24;;;;;;;3.10;1.58;;;18.20;49.90;;;18.14;45.03;98083.16;5032223;28;20065;-40
2022/07/07 05:51:52;;;;;;;2.95;1.85;;;18.30;49.60;;;18.19;45.03;98082.59;5032602;28;20470;-40
2022/07/07 05:54:20;;;;;;;4.30;2.33;;;18.30;49.70;;;18.28;44.77;98081.38;5033459;28;20332;-40
2022/07/07 05:56:48;;;;;;;2.30;1.50;;;18.40;49.40;;;18.33;44.87;98075.41;5033257;28;20057;-39
2022/07/07 05:59:16;;;;;;;3.20;1.73;;;18.50;49.60;;;18.38;45.00;98081.00;5033280;28;20048;-39
2022/07/07 06:01:44;;;;;;;2.95;1.65;;;18.50;49.90;;;18.44;44.83;98089.13;5032629;28;20045;-39
2022/07/07 06:04:12;;;;;;;2.88;1.60;;;18.50;49.90;;;18.51;44.90;98086.44;5033138;28;20045;-40
2022/07/07 06:06:40;;;;;;;2.90;1.58;;;18.60;49.70;;;18.54;44.52;98085.25;5032481;28;20067;-40
2022/07/07 06:09:07;;;;;;;2.90;1.42;;;18.60;49.30;;;18.59;44.38;98088.13;5031354;28;20055;-39
2022/07/07 06:11:36;;;;;;;6.15;1.70;;;18.70;49.30;;;18.60;44.56;98089.81;5031801;28;20059;-39
2022/07/07 06:14:04;;;;;;;2.50;1.70;;;18.70;49.30;;;18.59;44.63;98086.31;5033300;28;20443;-39
2022/07/07 06:16:38;;;;;;;2.05;1.77;;;18.70;49.60;;;18.62;44.38;98085.06;5032052;28;20336;-39
2022/07/07 06:19:08;;;;;;;2.15;1.50;;;18.80;49.10;;;18.57;44.15;98084.81;5032188;28;20049;-41
2022/07/07 06:21:39;;;;;;;1.70;1.60;;;18.80;48.80;;;18.49;44.27;98078.59;5032111;28;20052;-39
2022/07/07 06:24:07;;;;;;;2.67;1.35;;;18.70;48.60;;;18.63;43.97;98078.63;5030920;28;20057;-39
2022/07/07 06:26:36;;;;;;;1.77;1.58;;;18.80;48.40;;;18.71;44.12;98075.75;5028121;28;20080;-39
2022/07/07 06:29:04;;;;;;;3.65;2.20;;;18.90;48.40;;;18.74;43.84;98077.22;5029265;28;20049;-39
2022/07/07 06:31:32;;;;;;;2.25;1.60;;;18.90;48.40;;;18.84;43.88;98072.28;5029070;28;20056;-39
2022/07/07 06:34:00;;;;;;;2.63;1.60;;;19.00;48.30;;;18.95;43.83;98076.25;5029353;28;20049;-40
2022/07/07 06:36:28;;;;;;;6.35;2.70;;;19.20;48.30;;;18.89;43.92;98073.34;5043648;28;20059;-40
2022/07/07 06:38:56;;;;;;;4.47;2.00;;;19.10;48.10;;;19.02;44.01;98072.53;5029337;28;20049;-39
2022/07/07 06:41:33;;;;;;;2.58;1.90;;;19.30;48.50;;;18.93;43.70;98079.16;5029485;28;20055;-40
2022/07/07 06:44:02;;;;;;;7.63;2.25;;;19.40;47.80;;;19.18;43.50;98073.19;5028703;28;20062;-40
2022/07/07 06:46:30;;;;;;;5.00;2.25;;;19.50;47.60;;;19.14;43.50;98080.03;5028474;28;20049;-40
2022/07/07 06:48:59;;;;;;;4.90;2.15;;;19.40;47.30;;;19.33;43.55;98076.53;5027601;28;20384;-40
2022/07/07 06:51:29;;;;;;;5.38;2.17;;;19.50;47.90;;;19.35;43.21;98070.91;5028096;28;20053;-40
2022/07/07 06:53:58;;;;;;;4.47;2.70;;;19.60;47.30;;;19.40;43.42;98071.94;5028230;28;20041;-40
2022/07/07 06:56:26;;;;;;;3.97;2.08;;;19.70;47.80;;;19.32;43.20;98076.72;5028999;28;20060;-39
2022/07/07 06:58:54;;;;;;;4.18;2.22;;;19.50;47.90;;;19.30;43.42;98073.41;5028913;28;20069;-40
2022/07/07 07:01:22;;;;;;;4.40;2.20;;;19.50;47.90;;;19.40;43.34;98080.03;5029171;28;20053;-40
2022/07/07 07:03:50;;;;;;;2.10;1.90;;;19.70;47.70;;;19.41;43.28;98078.19;5027741;28;20248;-40
2022/07/07 07:06:19;;;;;;;5.45;2.15;;;19.70;47.40;;;19.45;43.06;98080.25;5028850;28;20068;-40
2022/07/07 07:08:48;;;;;;;4.40;2.00;;;19.70;47.20;;;19.58;42.41;98079.44;5028570;28;20061;-41
2022/07/07 07:11:16;;;;;;;3.10;2.30;;;19.90;46.10;;;19.52;43.29;98091.03;5028349;28;20081;-40
2022/07/07 07:13:47;;;;;;;3.88;1.83;;;19.90;47.10;;;19.74;42.97;98085.50;5028209;28;20047;-40
2022/07/07 07:16:17;;;;;;;5.00;1.95;;;20.00;46.90;;;19.71;42.53;98083.16;5029747;28;20056;-40
2022/07/07 07:18:45;;;;;;;3.95;1.80;;;20.00;46.60;;;19.66;42.79;98090.03;5028880;28;20046;-40
2022/07/07 07:21:13;;;;;;;3.05;2.35;;;20.00;46.70;;;19.67;42.69;98088.97;5028846;28;20063;-40
2022/07/07 07:23:41;;;;;;;3.28;2.00;;;19.90;46.80;;;19.48;42.64;98085.25;5026051;28;20348;-41
2022/07/07 07:26:09;;;;;;;4.25;2.30;;;19.80;46.60;;;19.70;42.78;98093.13;5027884;28;20057;-40
2022/07/07 07:28:37;;;;;;;5.28;2.05;;;20.00;46.90;;;19.75;42.89;98085.25;5029351;28;20363;-40
2022/07/07 07:31:06;;;;;;;2.10;1.63;;;20.00;46.90;;;19.86;42.85;98098.13;5043744;28;20057;-40
2022/07/07 07:33:37;;;;;;;2.92;2.10;;;20.20;47.00;;;19.89;42.66;98091.50;5028447;28;20057;-40
2022/07/07 07:36:08;;;;;;;4.30;2.00;;;20.20;46.80;;;19.87;43.17;98101.66;5028361;28;20053;-40
2022/07/07 07:38:38;;;;;;;2.53;1.80;;;20.10;47.30;;;19.88;42.94;98102.50;5027115;28;20055;-40
2022/07/07 07:41:08;;;;;;;3.33;2.40;;;20.20;47.20;;;19.63;43.15;98111.22;5027086;28;20060;-40
2022/07/07 07:43:36;;;;;;;2.53;2.28;;;20.00;47.20;;;19.58;43.43;98119.09;5026786;28;20045;-39
2022/07/07 07:46:08;;;;;;;3.55;2.05;;;19.80;47.40;;;19.62;43.62;98131.16;5042994;28;20422;-39
2022/07/07 07:48:36;;;;;;;5.45;2.30;;;19.80;47.90;;;19.81;43.16;98134.91;5043428;28;20256;-39
2022/07/07 07:51:04;;;;;;;4.45;2.17;;;20.00;47.50;;;19.62;43.44;98140.09;5027794;28;20046;-40
2022/07/07 07:53:32;;;;;;;3.30;1.95;;;19.80;47.90;;;19.72;43.38;98133.47;5027446;28;20043;-40
2022/07/07 07:56:00;;;;;;;3.35;2.50;;;19.90;47.90;;;19.77;43.65;98139.91;5027283;28;20049;-41
2022/07/07 07:58:28;;;;;;;4.22;2.25;;;20.00;48.00;;;19.76;43.84;98148.22;5027215;28;20365;-40
2022/07/07 08:00:56;;;;;;;8.23;2.53;;;19.90;48.50;;;19.61;44.48;98135.72;5033914;28;20038;-40
2022/07/07 08:03:24;;;;;;;6.53;2.75;;;19.80;49.30;;;19.71;44.31;98131.78;5038157;28;20045;-40
2022/07/07 08:05:53;;;;;;;9.93;2.20;;;19.80;48.90;;;19.68;44.31;98127.63;5034863;28;20048;-40
2022/07/07 08:08:21;;;;;;;5.43;2.13;;;19.80;49.30;;;19.51;44.88;98129.91;5037934;28;20049;-40
2022/07/07 08:10:48;;;;;;;3.60;2.50;;;19.60;50.10;;;19.42;45.38;98131.13;5035498;28;20059;-40
2022/07/07 08:13:16;;;;;;;6.28;2.75;;;19.50;50.90;;;19.51;45.39;98123.69;5028749;28;20356;-40
2022/07/07 08:15:44;;;;;;;4.15;3.08;;;19.60;50.80;;;19.51;45.67;98119.09;5037378;28;20068;-40
2022/07/07 08:18:12;;;;;;;4.63;3.00;;;19.70;50.90;;;19.45;46.20;98112.66;5038638;28;20283;-40
2022/07/07 08:20:40;;;;;;;4.95;3.70;;;19.60;51.60;;;19.54;45.97;98097.09;5038459;28;20037;-39
2022/07/07 08:23:08;;;;;;;5.63;3.33;;;19.70;51.30;;;19.68;45.72;98093.34;5037364;28;20052;-40
2022/07/07 08:25:36;;;;;;;3.65;3.08;;;19.80;51.30;;;19.78;45.94;98097.53;5038346;28;20049;-40
2022/07/07 08:28:04;;;;;;;3.30;3.00;;;20.00;51.30;;;19.97;45.51;98103.97;5035812;28;20063;-40
2022/07/07 08:30:32;;;;;;;6.47;4.25;;;20.20;50.70;;;20.01;46.50;98105.19;5038207;28;20057;-40
2022/07/07 08:33:00;;;;;;;5.57;4.22;;;20.30;51.40;;;20.08;46.15;98108.69;5037941;28;20063;-40
2022/07/07 08:35:28;;;;;;;7.72;5.10;;;20.40;51.60;;;20.21;46.46;98122.19;5036422;28;20374;-40
2022/07/07 08:37:56;;;;;;;5.28;4.28;;;20.60;51.80;;;19.95;47.09;98114.97;5035340;28;20064;-40
2022/07/07 08:40:24;;;;;;;6.63;4.38;;;20.20;52.50;;;19.86;47.49;98116.22;5037899;28;20041;-41
2022/07/07 08:42:59;;;;;;;10.77;4.13;;;20.20;53.00;;;19.66;47.83;98122.44;5036626;28;20056;-39
2022/07/07 08:45:27;;;;;;;8.00;3.88;;;19.90;53.50;;;19.67;47.73;98115.16;5036138;28;20444;-40
2022/07/07 08:47:56;;;;;;;7.22;3.70;;;19.90;53.50;;;19.80;47.54;98122.47;5036778;28;20056;-40
2022/07/07 08:50:25;;;;;;;6.45;4.13;;;20.00;53.00;;;19.66;47.65;98116.22;5035009;28;20365;-40
2022/07/07 08:52:55;;;;;;;4.18;3.70;;;20.00;53.70;;;19.65;48.03;98090.22;5036268;28;20045;-40
2022/07/07 08:55:23;;;;;;;5.55;4.03;;;19.90;53.80;;;19.86;48.07;98092.72;5036077;28;20052;-40
2022/07/07 08:57:52;;;;;;;5.82;3.30;;;20.20;53.70;;;19.82;48.44;98123.91;5037249;28;20046;-40
2022/07/07 09:00:22;;;;;;;4.25;3.42;;;20.20;54.00;;;19.69;48.66;98091.47;5036802;28;20053;-40
2022/07/07 09:02:56;;;;;;;7.53;3.38;;;20.10;54.30;;;19.70;48.95;98097.69;5037118;28;20321;-40
2022/07/07 09:05:25;;;;;;;6.05;3.65;;;20.00;55.00;;;19.40;50.08;98104.34;5036733;28;20052;-40
2022/07/07 09:07:54;;;;;;;6.40;3.65;;;19.70;56.20;;;19.40;51.59;98101.63;5036506;28;20366;-40
2022/07/07 09:10:34;;;;;;;6.53;3.63;;;19.80;57.90;;;19.41;51.53;98127.63;5038522;28;20061;-40
2022/07/07 09:13:18;;;;;;;3.97;3.13;;;19.80;57.80;;;18.93;53.48;98122.31;5034938;28;20041;-40
2022/07/07 09:15:46;;;;;;;6.15;3.10;;;19.30;60.40;;;18.93;53.03;98126.91;5018397;28;20049;-40
2022/07/07 09:18:34;;;;;;;4.72;2.83;;;19.10;60.50;;;18.84;54.06;98120.84;5036112;28;20053;-40
2022/07/07 09:21:06;;;;;;;4.53;2.75;;;19.10;61.70;;;18.98;52.85;98106.38;5036658;28;20042;-40
2022/07/07 09:23:56;;;;;;;4.40;2.72;;;19.10;60.50;;;19.01;53.00;98110.50;5035995;28;20045;-40
2022/07/07 09:26:44;;;;;;;6.07;2.95;;;19.20;60.60;;;18.97;53.52;98136.25;5035854;28;20037;-40
2022/07/07 09:29:18;;;;;;;3.55;3.10;;;19.20;61.40;;;18.92;53.71;98114.44;5034764;28;20059;-40
2022/07/07 09:31:57;;;;;;;4.70;3.05;;;19.10;61.60;;;19.03;53.85;98120.06;5037532;28;20050;-41
2022/07/07 09:34:31;;;;;;;5.70;3.45;;;19.10;62.00;;;19.21;52.61;98133.00;5035769;28;20217;-40
2022/07/07 09:39:57;;;;;;;6.38;3.17;;;19.20;62.00;;;19.16;53.22;98131.94;5037285;28;20042;-41
2022/07/07 09:42:40;;;;;;;4.43;2.58;;;19.20;62.10;;;19.11;53.25;98132.53;5035386;28;20292;-41
2022/07/07 09:45:11;;;;;;;5.60;2.65;;;19.20;62.00;;;19.12;52.93;98133.38;5034703;28;20052;-41
2022/07/07 09:47:40;;;;;;;3.40;3.08;;;19.20;60.90;;;19.11;52.73;98131.72;5035887;28;20049;-41
2022/07/07 09:50:14;;;;;;;3.78;2.70;;;19.30;60.50;;;19.20;52.30;98133.19;5036701;28;20057;-41
2022/07/07 09:52:47;;;;;;;4.07;2.65;;;19.40;59.80;;;19.28;52.54;98133.00;5037237;28;20343;-41
2022/07/07 09:55:16;;;;;;;3.85;3.05;;;19.50;59.90;;;19.26;52.71;98141.28;5036646;28;20059;-41
2022/07/07 09:57:44;;;;;;;3.78;3.00;;;19.50;60.20;;;19.46;52.78;98144.03;5037056;28;20045;-41
2022/07/07 10:00:14;;;;;;;3.80;2.60;;;19.70;59.90;;;19.70;52.14;98136.34;5036841;28;20352;-41
2022/07/07 10:02:44;;;;;;;3.70;2.80;;;20.00;58.90;;;19.95;52.03;98130.31;5040457;28;20382;-41
2022/07/07 10:05:15;;;;;;;5.30;2.88;;;20.30;58.60;;;20.09;51.52;98134.69;5038956;28;20048;-41
2022/07/07 10:07:47;;;;;;;4.88;3.45;;;20.50;57.90;;;20.24;51.26;98140.69;5040579;28;20208;-41
2022/07/07 10:10:20;;;;;;;4.03;2.45;;;20.60;57.80;;;20.25;51.09;98131.53;5040222;28;20057;-41
2022/07/07 10:12:52;;;;;;;3.33;2.97;;;20.60;58.10;;;20.38;50.94;98138.78;5027618;28;20340;-40
2022/07/07 10:15:21;;;;;;;3.55;3.22;;;20.60;58.10;;;20.06;51.92;98141.34;5024199;28;20041;-40
2022/07/07 10:17:50;;;;;;;3.30;2.80;;;20.30;59.30;;;20.03;52.32;98139.06;5024924;28;20045;-41
2022/07/07 10:20:18;;;;;;;3.55;2.35;;;20.20;60.00;;;20.05;52.16;98136.97;5024341;28;20041;-40
2022/07/07 10:22:46;;;;;;;4.35;2.25;;;20.10;59.90;;;20.22;52.03;98140.06;5025634;28;20050;-40
2022/07/07 10:25:15;;;;;;;3.40;2.33;;;20.30;59.40;;;20.15;51.94;98147.34;5023815;28;20065;-40
2022/07/07 10:27:50;;;;;;;2.70;2.22;;;20.30;59.40;;;20.01;52.04;98141.16;5023587;28;20049;-40
2022/07/07 10:30:33;;;;;;;3.22;2.30;;;20.20;59.50;;;20.03;52.20;98138.25;5025110;28;20050;-40